sensor_id;sensor_type;location;lat;lon;timestamp;pressure;altitude;pressure_sealevel;temperature;humidity
56600;BME280;51832;48.152;11.530;2023-01-04T00:02:01;96709.34;;;9.40;74.81
56600;BME280;51832;48.152;11.530;2023-01-04T00:07:01;96706.13;;;9.45;73.95
56600;BME280;51832;48.152;11.530;2023-01-04T00:12:02;96693.44;;;9.48;74.79
56600;BME280;51832;48.152;11.530;2023-01-04T00:17:02;96689.13;;;9.41;74.68
56600;BME280;51832;48.152;11.530;2023-01-04T00:22:03;96697.59;;;9.57;74.74
56600;BME280;51832;48.152;11.530;2023-01-04T00:27:04;96681.25;;;9.41;74.40
56600;BME280;51832;48.152;11.530;2023-01-04T00:32:05;96694.53;;;9.54;73.89
56600;BME280;51832;48.152;11.530;2023-01-04T00:37:05;96690.91;;;9.55;73.54
56600;BME280;51832;48.152;11.530;2023-01-04T00:42:06;96695.19;;;9.56;74.27
56600;BME280;51832;48.152;11.530;2023-01-04T00:47:07;96688.69;;;9.73;73.18
56600;BME280;51832;48.152;11.530;2023-01-04T00:52:07;96679.44;;;9.41;73.84
56600;BME280;51832;48.152;11.530;2023-01-04T00:57:08;96674.09;;;9.35;74.30
56600;BME280;51832;48.152;11.530;2023-01-04T01:02:09;96668.44;;;9.52;73.99
56600;BME280;51832;48.152;11.530;2023-01-04T01:07:09;96668.09;;;9.77;73.38
56600;BME280;51832;48.152;11.530;2023-01-04T01:12:10;96669.34;;;9.45;73.90
56600;BME280;51832;48.152;11.530;2023-01-04T01:17:11;96668.00;;;9.49;73.36
56600;BME280;51832;48.152;11.530;2023-01-04T01:22:11;96664.78;;;9.68;73.19
56600;BME280;51832;48.152;11.530;2023-01-04T01:27:11;96667.81;;;9.50;73.69
56600;BME280;51832;48.152;11.530;2023-01-04T01:32:12;96671.47;;;9.35;74.00
56600;BME280;51832;48.152;11.530;2023-01-04T01:37:12;96683.28;;;9.09;74.58
56600;BME280;51832;48.152;11.530;2023-01-04T01:42:20;96693.31;;;8.91;74.98
56600;BME280;51832;48.152;11.530;2023-01-04T01:47:25;96690.88;;;8.60;76.18
56600;BME280;51832;48.152;11.530;2023-01-04T01:52:30;96685.41;;;8.62;76.46
56600;BME280;51832;48.152;11.530;2023-01-04T01:57:35;96696.78;;;8.39;76.61
56600;BME280;51832;48.152;11.530;2023-01-04T02:02:41;96695.63;;;8.42;76.35
56600;BME280;51832;48.152;11.530;2023-01-04T02:07:44;96686.94;;;8.41;76.04
56600;BME280;51832;48.152;11.530;2023-01-04T02:12:46;96679.56;;;8.60;75.01
56600;BME280;51832;48.152;11.530;2023-01-04T02:18:00;96679.97;;;8.48;74.86
56600;BME280;51832;48.152;11.530;2023-01-04T02:33:55;96668.94;;;8.15;75.95
56600;BME280;51832;48.152;11.530;2023-01-04T02:44:14;96677.59;;;8.39;75.67
56600;BME280;51832;48.152;11.530;2023-01-04T02:49:34;96681.16;;;8.00;76.36
56600;BME280;51832;48.152;11.530;2023-01-04T02:54:54;96664.28;;;8.03;76.72
56600;BME280;51832;48.152;11.530;2023-01-04T03:00:11;96645.66;;;8.35;75.66
56600;BME280;51832;48.152;11.530;2023-01-04T03:05:23;96637.94;;;8.19;77.09
56600;BME280;51832;48.152;11.530;2023-01-04T03:10:49;96639.16;;;8.08;78.96
56600;BME280;51832;48.152;11.530;2023-01-04T03:16:03;96637.44;;;8.38;78.37
56600;BME280;51832;48.152;11.530;2023-01-04T03:21:07;96646.47;;;7.98;78.87
56600;BME280;51832;48.152;11.530;2023-01-04T03:26:14;96654.50;;;8.19;78.23
56600;BME280;51832;48.152;11.530;2023-01-04T03:53:29;96615.03;;;8.80;74.66
56600;BME280;51832;48.152;11.530;2023-01-04T03:58:32;96601.63;;;8.75;74.71
56600;BME280;51832;48.152;11.530;2023-01-04T04:03:33;96591.13;;;8.75;74.45
56600;BME280;51832;48.152;11.530;2023-01-04T04:08:52;96591.53;;;8.57;75.19
56600;BME280;51832;48.152;11.530;2023-01-04T04:13:54;96597.41;;;8.21;76.88
56600;BME280;51832;48.152;11.530;2023-01-04T04:18:54;96595.44;;;8.24;76.27
56600;BME280;51832;48.152;11.530;2023-01-04T04:23:55;96590.66;;;8.27;76.48
56600;BME280;51832;48.152;11.530;2023-01-04T04:28:56;96596.63;;;7.83;77.62
56600;BME280;51832;48.152;11.530;2023-01-04T04:33:56;96590.44;;;7.99;76.43
56600;BME280;51832;48.152;11.530;2023-01-04T04:38:57;96578.81;;;7.56;78.29
56600;BME280;51832;48.152;11.530;2023-01-04T04:43:58;96573.94;;;7.53;78.28
56600;BME280;51832;48.152;11.530;2023-01-04T04:48:58;96570.44;;;7.61;76.97
56600;BME280;51832;48.152;11.530;2023-01-04T04:53:59;96564.53;;;7.81;75.68
56600;BME280;51832;48.152;11.530;2023-01-04T04:59:00;96556.84;;;7.80;76.17
56600;BME280;51832;48.152;11.530;2023-01-04T05:04:00;96558.84;;;7.55;76.42
56600;BME280;51832;48.152;11.530;2023-01-04T05:09:01;96559.78;;;8.00;74.64
56600;BME280;51832;48.152;11.530;2023-01-04T05:14:01;96551.81;;;7.93;75.00
56600;BME280;51832;48.152;11.530;2023-01-04T05:19:02;96550.59;;;8.04;73.67
56600;BME280;51832;48.152;11.530;2023-01-04T05:24:02;96554.06;;;7.81;74.14
56600;BME280;51832;48.152;11.530;2023-01-04T05:29:03;96563.38;;;7.84;74.25
56600;BME280;51832;48.152;11.530;2023-01-04T05:34:03;96560.75;;;7.84;74.62
56600;BME280;51832;48.152;11.530;2023-01-04T05:39:04;96557.13;;;7.85;74.04
56600;BME280;51832;48.152;11.530;2023-01-04T05:44:04;96563.09;;;7.94;73.98
56600;BME280;51832;48.152;11.530;2023-01-04T05:49:05;96571.53;;;7.89;73.69
56600;BME280;51832;48.152;11.530;2023-01-04T05:54:05;96575.75;;;7.75;74.59
56600;BME280;51832;48.152;11.530;2023-01-04T05:59:06;96567.84;;;7.98;73.79
56600;BME280;51832;48.152;11.530;2023-01-04T06:04:06;96574.53;;;8.01;73.53
56600;BME280;51832;48.152;11.530;2023-01-04T06:09:07;96580.56;;;7.87;73.78
56600;BME280;51832;48.152;11.530;2023-01-04T06:14:07;96584.25;;;7.77;74.12
56600;BME280;51832;48.152;11.530;2023-01-04T06:19:08;96585.56;;;7.73;74.54
56600;BME280;51832;48.152;11.530;2023-01-04T06:24:10;96576.50;;;7.61;75.34
56600;BME280;51832;48.152;11.530;2023-01-04T06:29:11;96580.50;;;8.09;73.53
56600;BME280;51832;48.152;11.530;2023-01-04T06:34:13;96583.97;;;8.25;73.67
56600;BME280;51832;48.152;11.530;2023-01-04T06:39:13;96571.66;;;8.25;73.79
56600;BME280;51832;48.152;11.530;2023-01-04T06:44:14;96567.69;;;8.14;74.52
56600;BME280;51832;48.152;11.530;2023-01-04T06:49:15;96554.88;;;8.19;74.01
56600;BME280;51832;48.152;11.530;2023-01-04T06:54:15;96549.41;;;8.06;75.02
56600;BME280;51832;48.152;11.530;2023-01-04T06:59:15;96547.22;;;8.33;74.06
56600;BME280;51832;48.152;11.530;2023-01-04T07:04:16;96540.28;;;8.02;75.43
56600;BME280;51832;48.152;11.530;2023-01-04T07:09:16;96535.94;;;8.09;74.50
56600;BME280;51832;48.152;11.530;2023-01-04T07:14:17;96543.44;;;8.12;74.59
56600;BME280;51832;48.152;11.530;2023-01-04T07:19:18;96541.47;;;8.14;74.88
56600;BME280;51832;48.152;11.530;2023-01-04T07:24:18;96539.22;;;8.26;74.57
56600;BME280;51832;48.152;11.530;2023-01-04T07:29:19;96535.09;;;8.32;74.28
56600;BME280;51832;48.152;11.530;2023-01-04T07:34:23;96547.78;;;7.91;76.03
56600;BME280;51832;48.152;11.530;2023-01-04T07:39:24;96555.53;;;7.99;75.39
56600;BME280;51832;48.152;11.530;2023-01-04T07:44:24;96545.16;;;8.05;75.25
56600;BME280;51832;48.152;11.530;2023-01-04T07:49:26;96533.94;;;8.11;75.55
56600;BME280;51832;48.152;11.530;2023-01-04T07:54:27;96529.94;;;8.38;74.60
56600;BME280;51832;48.152;11.530;2023-01-04T07:59:28;96510.38;;;8.26;75.18
56600;BME280;51832;48.152;11.530;2023-01-04T08:04:28;96515.59;;;8.26;74.76
56600;BME280;51832;48.152;11.530;2023-01-04T08:09:29;96509.84;;;8.31;74.49
56600;BME280;51832;48.152;11.530;2023-01-04T08:14:29;96511.69;;;8.81;74.00
56600;BME280;51832;48.152;11.530;2023-01-04T08:19:30;96516.97;;;8.66;73.67
56600;BME280;51832;48.152;11.530;2023-01-04T08:24:30;96517.16;;;8.35;74.83
56600;BME280;51832;48.152;11.530;2023-01-04T08:29:31;96510.09;;;8.65;74.92
56600;BME280;51832;48.152;11.530;2023-01-04T08:34:31;96511.66;;;8.96;73.44
56600;BME280;51832;48.152;11.530;2023-01-04T08:39:32;96522.31;;;9.09;73.24
56600;BME280;51832;48.152;11.530;2023-01-04T08:44:35;96507.81;;;9.34;72.54
56600;BME280;51832;48.152;11.530;2023-01-04T08:49:35;96513.63;;;9.51;71.94
56600;BME280;51832;48.152;11.530;2023-01-04T08:54:36;96505.91;;;9.98;70.79
56600;BME280;51832;48.152;11.530;2023-01-04T08:59:36;96515.84;;;9.75;71.46
56600;BME280;51832;48.152;11.530;2023-01-04T09:04:37;96493.16;;;9.68;71.04
56600;BME280;51832;48.152;11.530;2023-01-04T09:09:37;96492.75;;;9.71;71.04
56600;BME280;51832;48.152;11.530;2023-01-04T09:14:38;96484.63;;;9.66;70.80
56600;BME280;51832;48.152;11.530;2023-01-04T09:19:39;96493.09;;;9.61;70.86
56600;BME280;51832;48.152;11.530;2023-01-04T09:24:39;96480.31;;;10.14;69.62
56600;BME280;51832;48.152;11.530;2023-01-04T09:29:40;96495.81;;;10.02;69.95
56600;BME280;51832;48.152;11.530;2023-01-04T09:34:40;96479.00;;;10.72;68.05
56600;BME280;51832;48.152;11.530;2023-01-04T09:39:41;96489.34;;;10.74;67.49
56600;BME280;51832;48.152;11.530;2023-01-04T09:44:48;96489.78;;;10.84;67.14
56600;BME280;51832;48.152;11.530;2023-01-04T09:55:29;96470.94;;;10.32;68.26
56600;BME280;51832;48.152;11.530;2023-01-04T10:00:42;96488.00;;;10.43;68.57
56600;BME280;51832;48.152;11.530;2023-01-04T10:05:45;96476.91;;;10.54;68.44
56600;BME280;51832;48.152;11.530;2023-01-04T10:15:54;96461.91;;;11.22;66.56
56600;BME280;51832;48.152;11.530;2023-01-04T10:26:15;96418.75;;;11.30;65.42
56600;BME280;51832;48.152;11.530;2023-01-04T10:31:43;96433.16;;;11.40;64.66
56600;BME280;51832;48.152;11.530;2023-01-04T10:36:46;96400.72;;;11.14;64.23
56600;BME280;51832;48.152;11.530;2023-01-04T10:41:58;96424.22;;;11.48;63.02
56600;BME280;51832;48.152;11.530;2023-01-04T10:57:16;96394.22;;;11.29;63.26
56600;BME280;51832;48.152;11.530;2023-01-04T11:02:50;96372.34;;;10.89;63.81
56600;BME280;51832;48.152;11.530;2023-01-04T11:07:58;96382.25;;;11.00;63.35
56600;BME280;51832;48.152;11.530;2023-01-04T11:13:05;96365.44;;;11.28;61.53
56600;BME280;51832;48.152;11.530;2023-01-04T11:18:06;96359.78;;;11.44;60.20
56600;BME280;51832;48.152;11.530;2023-01-04T11:23:14;96365.03;;;11.44;60.24
56600;BME280;51832;48.152;11.530;2023-01-04T11:28:20;96343.94;;;11.57;59.36
56600;BME280;51832;48.152;11.530;2023-01-04T11:33:23;96330.94;;;11.62;58.43
56600;BME280;51832;48.152;11.530;2023-01-04T11:38:28;96313.34;;;11.43;58.13
56600;BME280;51832;48.152;11.530;2023-01-04T11:43:31;96359.78;;;11.18;58.35
56600;BME280;51832;48.152;11.530;2023-01-04T11:48:43;96343.06;;;11.90;56.39
56600;BME280;51832;48.152;11.530;2023-01-04T11:53:44;96316.34;;;11.53;57.42
56600;BME280;51832;48.152;11.530;2023-01-04T11:59:14;96315.09;;;11.69;56.31
56600;BME280;51832;48.152;11.530;2023-01-04T12:04:22;96315.81;;;12.09;55.44
56600;BME280;51832;48.152;11.530;2023-01-04T12:09:23;96294.28;;;12.12;54.96
56600;BME280;51832;48.152;11.530;2023-01-04T12:14:35;96303.91;;;12.38;54.00
56600;BME280;51832;48.152;11.530;2023-01-04T12:19:39;96288.75;;;11.75;54.50
56600;BME280;51832;48.152;11.530;2023-01-04T12:24:43;96269.03;;;12.29;52.26
56600;BME280;51832;48.152;11.530;2023-01-04T12:29:54;96276.63;;;12.13;52.03
56600;BME280;51832;48.152;11.530;2023-01-04T12:34:55;96263.50;;;12.37;51.66
56600;BME280;51832;48.152;11.530;2023-01-04T12:39:56;96256.38;;;12.38;50.89
56600;BME280;51832;48.152;11.530;2023-01-04T12:44:57;96254.06;;;12.55;50.07
56600;BME280;51832;48.152;11.530;2023-01-04T12:50:11;96256.06;;;12.28;50.55
56600;BME280;51832;48.152;11.530;2023-01-04T13:05:59;96251.84;;;12.52;47.79
56600;BME280;51832;48.152;11.530;2023-01-04T13:11:03;96224.81;;;12.56;47.44
56600;BME280;51832;48.152;11.530;2023-01-04T13:16:18;96241.81;;;12.85;46.58
56600;BME280;51832;48.152;11.530;2023-01-04T13:21:37;96225.47;;;12.45;47.01
56600;BME280;51832;48.152;11.530;2023-01-04T13:26:40;96240.69;;;13.24;45.68
56600;BME280;51832;48.152;11.530;2023-01-04T13:41:59;96217.03;;;12.61;44.75
56600;BME280;51832;48.152;11.530;2023-01-04T13:47:00;96207.22;;;12.43;44.69
56600;BME280;51832;48.152;11.530;2023-01-04T13:52:19;96215.63;;;12.84;43.74
56600;BME280;51832;48.152;11.530;2023-01-04T13:57:20;96183.41;;;12.75;43.44
56600;BME280;51832;48.152;11.530;2023-01-04T14:02:21;96186.25;;;12.98;41.58
56600;BME280;51832;48.152;11.530;2023-01-04T14:07:22;96209.38;;;12.78;41.49
56600;BME280;51832;48.152;11.530;2023-01-04T14:12:26;96222.63;;;12.96;41.02
56600;BME280;51832;48.152;11.530;2023-01-04T14:17:37;96190.25;;;13.01;40.14
56600;BME280;51832;48.152;11.530;2023-01-04T14:27:47;96230.53;;;13.21;40.23
56600;BME280;51832;48.152;11.530;2023-01-04T14:38:15;96185.88;;;13.13;40.12
56600;BME280;51832;48.152;11.530;2023-01-04T14:43:36;96181.88;;;12.86;40.76
56600;BME280;51832;48.152;11.530;2023-01-04T14:48:42;96206.66;;;13.09;40.59
56600;BME280;51832;48.152;11.530;2023-01-04T14:53:43;96172.03;;;13.18;40.72
56600;BME280;51832;48.152;11.530;2023-01-04T14:58:44;96170.19;;;12.75;41.61
56600;BME280;51832;48.152;11.530;2023-01-04T15:03:45;96167.88;;;12.60;42.42
56600;BME280;51832;48.152;11.530;2023-01-04T15:08:45;96147.41;;;12.80;42.92
56600;BME280;51832;48.152;11.530;2023-01-04T15:13:46;96146.03;;;12.53;43.93
56600;BME280;51832;48.152;11.530;2023-01-04T15:18:47;96139.72;;;12.54;44.86
56600;BME280;51832;48.152;11.530;2023-01-04T15:23:47;96147.47;;;12.92;44.79
56600;BME280;51832;48.152;11.530;2023-01-04T15:28:48;96162.69;;;12.54;46.49
56600;BME280;51832;48.152;11.530;2023-01-04T15:33:48;96147.69;;;12.23;48.91
56600;BME280;51832;48.152;11.530;2023-01-04T15:38:52;96145.16;;;12.59;48.61
56600;BME280;51832;48.152;11.530;2023-01-04T15:43:53;96134.06;;;12.51;49.50
56600;BME280;51832;48.152;11.530;2023-01-04T15:48:54;96130.13;;;12.60;50.44
56600;BME280;51832;48.152;11.530;2023-01-04T15:53:54;96159.56;;;12.38;51.90
56600;BME280;51832;48.152;11.530;2023-01-04T15:58:55;96148.88;;;12.52;52.32
56600;BME280;51832;48.152;11.530;2023-01-04T16:03:56;96133.41;;;12.30;54.52
56600;BME280;51832;48.152;11.530;2023-01-04T16:08:56;96133.38;;;12.37;55.89
56600;BME280;51832;48.152;11.530;2023-01-04T16:13:59;96121.47;;;12.53;55.81
56600;BME280;51832;48.152;11.530;2023-01-04T16:18:59;96125.28;;;12.32;56.60
56600;BME280;51832;48.152;11.530;2023-01-04T16:24:01;96131.75;;;12.11;60.31
56600;BME280;51832;48.152;11.530;2023-01-04T16:29:02;96101.81;;;12.24;60.46
56600;BME280;51832;48.152;11.530;2023-01-04T16:34:03;96133.59;;;12.35;60.08
56600;BME280;51832;48.152;11.530;2023-01-04T16:39:04;96146.50;;;12.19;60.51
56600;BME280;51832;48.152;11.530;2023-01-04T16:44:05;96123.72;;;12.24;60.38
56600;BME280;51832;48.152;11.530;2023-01-04T16:49:09;96141.66;;;12.16;61.42
56600;BME280;51832;48.152;11.530;2023-01-04T16:54:11;96207.53;;;11.91;62.84
56600;BME280;51832;48.152;11.530;2023-01-04T16:59:13;96137.03;;;12.36;61.48
56600;BME280;51832;48.152;11.530;2023-01-04T17:04:15;96162.53;;;12.17;62.45
56600;BME280;51832;48.152;11.530;2023-01-04T17:09:18;96163.22;;;11.68;64.23
56600;BME280;51832;48.152;11.530;2023-01-04T17:14:19;96132.78;;;12.10;63.84
56600;BME280;51832;48.152;11.530;2023-01-04T17:19:20;96149.31;;;11.92;64.25
56600;BME280;51832;48.152;11.530;2023-01-04T17:24:20;96138.97;;;11.91;64.15
56600;BME280;51832;48.152;11.530;2023-01-04T17:29:21;96144.22;;;11.97;64.41
56600;BME280;51832;48.152;11.530;2023-01-04T17:34:21;96121.59;;;11.83;64.78
56600;BME280;51832;48.152;11.530;2023-01-04T17:39:22;96120.50;;;11.97;64.26
56600;BME280;51832;48.152;11.530;2023-01-04T17:44:22;96123.81;;;11.86;64.32
56600;BME280;51832;48.152;11.530;2023-01-04T17:49:23;96112.69;;;11.78;65.02
56600;BME280;51832;48.152;11.530;2023-01-04T17:54:24;96119.28;;;11.93;64.58
56600;BME280;51832;48.152;11.530;2023-01-04T17:59:24;96109.72;;;11.99;64.31
56600;BME280;51832;48.152;11.530;2023-01-04T18:04:25;96121.72;;;11.95;64.76
56600;BME280;51832;48.152;11.530;2023-01-04T18:09:25;96106.88;;;11.62;65.80
56600;BME280;51832;48.152;11.530;2023-01-04T18:14:26;96113.63;;;11.90;64.97
56600;BME280;51832;48.152;11.530;2023-01-04T18:19:28;96109.34;;;11.95;64.81
56600;BME280;51832;48.152;11.530;2023-01-04T18:24:29;96103.97;;;12.08;64.10
56600;BME280;51832;48.152;11.530;2023-01-04T18:29:30;96106.47;;;11.65;65.85
56600;BME280;51832;48.152;11.530;2023-01-04T18:34:31;96103.00;;;11.71;65.58
56600;BME280;51832;48.152;11.530;2023-01-04T18:39:32;96114.72;;;11.75;65.25
56600;BME280;51832;48.152;11.530;2023-01-04T18:44:32;96097.50;;;11.73;65.58
56600;BME280;51832;48.152;11.530;2023-01-04T18:49:33;96076.47;;;11.98;65.05
56600;BME280;51832;48.152;11.530;2023-01-04T18:54:33;96069.75;;;11.64;66.48
56600;BME280;51832;48.152;11.530;2023-01-04T18:59:34;96055.84;;;11.88;65.76
56600;BME280;51832;48.152;11.530;2023-01-04T19:04:35;96049.38;;;11.84;65.58
56600;BME280;51832;48.152;11.530;2023-01-04T19:09:35;96059.72;;;11.86;65.75
56600;BME280;51832;48.152;11.530;2023-01-04T19:14:36;96103.78;;;11.79;66.13
56600;BME280;51832;48.152;11.530;2023-01-04T19:19:36;96042.13;;;11.73;66.37
56600;BME280;51832;48.152;11.530;2023-01-04T19:24:37;96055.72;;;12.26;64.66
56600;BME280;51832;48.152;11.530;2023-01-04T19:29:38;96043.63;;;11.94;65.52
56600;BME280;51832;48.152;11.530;2023-01-04T19:34:38;96039.78;;;11.90;65.61
56600;BME280;51832;48.152;11.530;2023-01-04T19:39:39;96022.78;;;12.10;65.31
56600;BME280;51832;48.152;11.530;2023-01-04T19:44:39;96021.97;;;12.10;65.05
56600;BME280;51832;48.152;11.530;2023-01-04T19:49:40;96026.06;;;12.49;63.87
56600;BME280;51832;48.152;11.530;2023-01-04T19:54:40;96013.44;;;12.33;64.35
56600;BME280;51832;48.152;11.530;2023-01-04T19:59:41;96005.81;;;12.25;64.37
56600;BME280;51832;48.152;11.530;2023-01-04T20:04:41;96016.06;;;12.33;64.27
56600;BME280;51832;48.152;11.530;2023-01-04T20:09:42;96030.75;;;12.47;63.43
56600;BME280;51832;48.152;11.530;2023-01-04T20:14:43;96018.59;;;12.64;62.96
56600;BME280;51832;48.152;11.530;2023-01-04T20:19:43;96023.16;;;12.57;63.10
56600;BME280;51832;48.152;11.530;2023-01-04T20:24:44;96006.03;;;12.78;62.51
56600;BME280;51832;48.152;11.530;2023-01-04T20:29:44;96020.75;;;13.22;61.08
56600;BME280;51832;48.152;11.530;2023-01-04T20:34:45;96043.66;;;12.92;61.63
56600;BME280;51832;48.152;11.530;2023-01-04T20:39:45;96030.94;;;13.00;61.53
56600;BME280;51832;48.152;11.530;2023-01-04T20:44:46;96026.63;;;13.24;61.26
56600;BME280;51832;48.152;11.530;2023-01-04T20:49:47;96024.34;;;13.09;61.65
56600;BME280;51832;48.152;11.530;2023-01-04T20:54:48;96018.78;;;13.59;60.60
56600;BME280;51832;48.152;11.530;2023-01-04T20:59:49;96045.91;;;13.55;60.70
56600;BME280;51832;48.152;11.530;2023-01-04T21:04:49;96012.13;;;13.27;61.26
56600;BME280;51832;48.152;11.530;2023-01-04T21:09:50;96002.09;;;13.17;61.04
56600;BME280;51832;48.152;11.530;2023-01-04T21:14:50;96049.22;;;13.02;62.27
56600;BME280;51832;48.152;11.530;2023-01-04T21:19:51;96012.75;;;13.10;62.26
56600;BME280;51832;48.152;11.530;2023-01-04T21:24:51;95994.78;;;13.01;62.88
56600;BME280;51832;48.152;11.530;2023-01-04T21:29:52;96005.84;;;13.09;63.08
56600;BME280;51832;48.152;11.530;2023-01-04T21:34:52;96000.97;;;12.95;64.90
56600;BME280;51832;48.152;11.530;2023-01-04T21:39:53;96020.56;;;12.51;68.07
56600;BME280;51832;48.152;11.530;2023-01-04T21:44:53;96005.16;;;12.66;69.93
56600;BME280;51832;48.152;11.530;2023-01-04T21:49:54;96006.19;;;12.65;71.56
56600;BME280;51832;48.152;11.530;2023-01-04T21:54:55;95999.00;;;12.54;72.55
56600;BME280;51832;48.152;11.530;2023-01-04T21:59:56;96052.56;;;11.93;74.98
56600;BME280;51832;48.152;11.530;2023-01-04T22:05:01;96001.84;;;12.16;75.98
56600;BME280;51832;48.152;11.530;2023-01-04T22:10:02;96004.91;;;12.13;76.59
56600;BME280;51832;48.152;11.530;2023-01-04T22:15:02;95978.59;;;12.06;77.01
56600;BME280;51832;48.152;11.530;2023-01-04T22:20:05;96011.47;;;12.03;77.81
56600;BME280;51832;48.152;11.530;2023-01-04T22:25:06;96005.75;;;11.57;79.85
56600;BME280;51832;48.152;11.530;2023-01-04T22:30:08;96012.91;;;11.81;78.94
56600;BME280;51832;48.152;11.530;2023-01-04T22:35:09;96027.75;;;11.44;80.45
56600;BME280;51832;48.152;11.530;2023-01-04T22:40:10;96017.34;;;11.49;80.51
56600;BME280;51832;48.152;11.530;2023-01-04T22:45:11;96004.22;;;11.99;79.56
56600;BME280;51832;48.152;11.530;2023-01-04T22:50:12;96008.88;;;11.72;79.93
56600;BME280;51832;48.152;11.530;2023-01-04T22:55:12;96003.44;;;11.35;81.38
56600;BME280;51832;48.152;11.530;2023-01-04T23:00:14;96002.72;;;11.22;81.55
56600;BME280;51832;48.152;11.530;2023-01-04T23:05:14;96019.56;;;11.52;79.99
56600;BME280;51832;48.152;11.530;2023-01-04T23:10:15;96030.28;;;11.89;78.00
56600;BME280;51832;48.152;11.530;2023-01-04T23:15:16;95996.56;;;11.66;77.67
56600;BME280;51832;48.152;11.530;2023-01-04T23:20:17;96011.06;;;11.82;77.00
56600;BME280;51832;48.152;11.530;2023-01-04T23:25:18;95964.41;;;11.82;76.03
56600;BME280;51832;48.152;11.530;2023-01-04T23:30:18;95976.28;;;11.91;74.97
56600;BME280;51832;48.152;11.530;2023-01-04T23:35:19;95982.94;;;12.37;73.68
56600;BME280;51832;48.152;11.530;2023-01-04T23:40:19;95969.22;;;12.10;73.57
56600;BME280;51832;48.152;11.530;2023-01-04T23:45:23;95954.88;;;12.24;73.30
56600;BME280;51832;48.152;11.530;2023-01-04T23:50:23;95967.00;;;11.89;73.65
56600;BME280;51832;48.152;11.530;2023-01-04T23:55:24;95956.75;;;12.17;73.30
